Time,TemperatureF,DewpointF,PressureIn,WindDirection,WindDirectionDegrees,WindSpeedMPH,WindSpeedGustMPH,Humidity,HourlyPrecipIn,Conditions,Clouds,dailyrainin,SolarRadiationWatts/m^2,SoftwareType,DateUTC
2013-09-15 00:14:00,55.1,53.0,29.77,WNW,290,0.0,1.0,92,0.00,,,0.00,0,weatherlink.com 1.10,2013-09-15 07:14:00,
2013-09-15 00:29:00,54.6,53.0,29.77,WNW,290,0.0,0.0,93,0.00,,,0.00,0,weatherlink.com 1.10,2013-09-15 07:29:00,
2013-09-15 00:44:00,54.7,53.0,29.77,WNW,290,0.0,0.0,93,0.00,,,0.00,0,weatherlink.com 1.10,2013-09-15 07:44:00,
2013-09-15 00:59:00,54.6,53.0,29.77,WNW,290,0.0,1.0,93,0.00,,,0.00,0,weatherlink.com 1.10,2013-09-15 07:59:00,
2013-09-15 01:14:00,54.1,52.0,29.77,WNW,290,0.0,1.0,93,0.00,,,0.00,0,weatherlink.com 1.10,2013-09-15 08:14:00,
2013-09-15 01:29:00,54.0,52.0,29.77,WNW,290,0.0,1.0,93,0.00,,,0.00,0,weatherlink.com 1.10,2013-09-15 08:29:00,
2013-09-15 01:44:00,54.1,53.0,29.77,WNW,290,0.0,0.0,94,0.00,,,0.00,0,weatherlink.com 1.10,2013-09-15 08:44:00,
2013-09-15 01:59:00,53.9,52.0,29.77,WNW,290,0.0,1.0,94,0.00,,,0.00,0,weatherlink.com 1.10,2013-09-15 08:59:00,
2013-09-15 02:14:00,54.0,52.0,29.77,WNW,290,0.0,1.0,94,0.00,,,0.00,0,weatherlink.com 1.10,2013-09-15 09:14:00,
2013-09-15 02:29:00,53.7,52.0,29.77,WNW,290,0.0,0.0,94,0.00,,,0.00,0,weatherlink.com 1.10,2013-09-15 09:29:00,
2013-09-15 02:44:00,53.9,52.0,29.77,WNW,296,0.0,0.0,94,0.00,,,0.00,0,weatherlink.com 1.10,2013-09-15 09:44:00,
2013-09-15 02:59:00,53.8,52.0,29.77,WNW,296,0.0,1.0,94,0.00,,,0.00,0,weatherlink.com 1.10,2013-09-15 09:59:00,
2013-09-15 03:14:00,54.0,52.0,29.77,WNW,296,0.0,1.0,94,0.00,,,0.00,0,weatherlink.com 1.10,2013-09-15 10:14:00,
2013-09-15 03:29:00,54.0,52.0,29.78,WNW,296,0.0,1.0,94,0.00,,,0.00,0,weatherlink.com 1.10,2013-09-15 10:29:00,
2013-09-15 03:44:00,54.3,53.0,29.77,West,278,0.0,2.0,94,0.00,,,0.00,0,weatherlink.com 1.10,2013-09-15 10:44:00,
2013-09-15 03:59:00,54.3,53.0,29.77,West,278,0.0,0.0,94,0.00,,,0.00,0,weatherlink.com 1.10,2013-09-15 10:59:00,
2013-09-15 04:14:00,54.2,53.0,29.77,West,278,0.0,1.0,94,0.00,,,0.00,0,weatherlink.com 1.10,2013-09-15 11:14:00,
2013-09-15 04:29:00,54.0,52.0,29.78,West,278,0.0,0.0,94,0.00,,,0.00,0,weatherlink.com 1.10,2013-09-15 11:29:00,
2013-09-15 04:44:00,53.8,52.0,29.78,West,278,0.0,0.0,94,0.00,,,0.00,0,weatherlink.com 1.10,2013-09-15 11:44:00,
2013-09-15 04:59:00,53.6,52.0,29.78,West,278,0.0,0.0,94,0.00,,,0.00,0,weatherlink.com 1.10,2013-09-15 11:59:00,
2013-09-15 05:14:00,53.5,52.0,29.78,West,278,0.0,0.0,94,0.00,,,0.00,0,weatherlink.com 1.10,2013-09-15 12:14:00,
2013-09-15 05:29:00,53.5,52.0,29.79,West,278,0.0,1.0,94,0.00,,,0.00,0,weatherlink.com 1.10,2013-09-15 12:29:00,
2013-09-15 05:44:00,53.4,52.0,29.79,West,278,0.0,0.0,94,0.00,,,0.00,0,weatherlink.com 1.10,2013-09-15 12:44:00,
2013-09-15 05:59:00,53.4,52.0,29.80,West,278,0.0,1.0,94,0.00,,,0.00,0,weatherlink.com 1.10,2013-09-15 12:59:00,
2013-09-15 06:15:00,53.7,52.0,29.80,West,278,0.0,1.0,95,0.00,,,0.00,0,weatherlink.com 1.10,2013-09-15 13:15:00,
2013-09-15 06:30:00,54.0,53.0,29.80,West,278,0.0,0.0,95,0.00,,,0.00,0,weatherlink.com 1.10,2013-09-15 13:30:00,
2013-09-15 06:45:00,53.9,53.0,29.80,West,278,0.0,1.0,95,0.00,,,0.00,0,weatherlink.com 1.10,2013-09-15 13:45:00,
2013-09-15 07:00:00,53.9,53.0,29.81,West,278,0.0,0.0,95,0.00,,,0.00,0,weatherlink.com 1.10,2013-09-15 14:00:00,
2013-09-15 07:15:00,53.9,53.0,29.81,West,278,0.0,0.0,95,0.00,,,0.00,18,weatherlink.com 1.10,2013-09-15 14:15:00,
2013-09-15 07:30:00,53.9,53.0,29.81,North,351,0.0,1.0,95,0.00,,,0.00,26,weatherlink.com 1.10,2013-09-15 14:30:00,
2013-09-15 07:45:00,54.2,53.0,29.81,North,351,0.0,0.0,95,0.00,,,0.00,125,weatherlink.com 1.10,2013-09-15 14:45:00,
2013-09-15 08:00:00,54.6,53.0,29.82,North,351,0.0,0.0,95,0.00,,,0.00,39,weatherlink.com 1.10,2013-09-15 15:00:00,
2013-09-15 08:15:00,55.2,54.0,29.81,North,349,0.0,2.0,95,0.00,,,0.00,42,weatherlink.com 1.10,2013-09-15 15:15:00,
2013-09-15 08:30:00,56.1,55.0,29.82,West,277,1.0,3.0,96,0.00,,,0.00,46,weatherlink.com 1.10,2013-09-15 15:30:00,
2013-09-15 08:45:00,57.0,56.0,29.82,West,268,1.0,4.0,95,0.00,,,0.00,47,weatherlink.com 1.10,2013-09-15 15:45:00,
2013-09-15 09:00:00,57.8,56.0,29.82,West,281,1.0,5.0,93,0.00,,,0.00,385,weatherlink.com 1.10,2013-09-15 16:00:00,
2013-09-15 09:15:00,61.0,56.0,29.82,WNW,299,0.0,5.0,84,0.00,,,0.00,450,weatherlink.com 1.10,2013-09-15 16:15:00,
2013-09-15 09:30:00,62.6,56.0,29.83,WSW,247,1.0,4.0,80,0.00,,,0.00,497,weatherlink.com 1.10,2013-09-15 16:30:00,
2013-09-15 09:45:00,64.2,57.0,29.83,WSW,248,0.0,5.0,76,0.00,,,0.00,536,weatherlink.com 1.10,2013-09-15 16:45:00,
2013-09-15 10:01:00,66.7,57.0,29.83,West,271,1.0,3.0,71,0.00,,,0.00,580,weatherlink.com 1.10,2013-09-15 17:01:00,
2013-09-15 10:16:00,67.6,57.0,29.84,WSW,252,2.0,2.0,69,0.00,,,0.00,617,weatherlink.com 1.10,2013-09-15 17:16:00,
2013-09-15 10:31:00,68.3,57.0,29.83,NNE,23,1.0,4.0,67,0.00,,,0.00,650,weatherlink.com 1.10,2013-09-15 17:31:00,
2013-09-15 10:46:00,70.6,57.0,29.84,West,279,2.0,4.0,62,0.00,,,0.00,686,weatherlink.com 1.10,2013-09-15 17:46:00,
2013-09-15 11:01:00,70.9,57.0,29.84,West,281,4.0,10.0,61,0.00,,,0.00,714,weatherlink.com 1.10,2013-09-15 18:01:00,
2013-09-15 11:16:00,71.5,57.0,29.84,West,265,3.0,10.0,60,0.00,,,0.00,737,weatherlink.com 1.10,2013-09-15 18:16:00,
2013-09-15 11:31:00,71.0,57.0,29.84,West,277,5.0,7.0,61,0.00,,,0.00,761,weatherlink.com 1.10,2013-09-15 18:31:00,
2013-09-15 11:46:00,71.7,57.0,29.85,West,277,4.0,8.0,60,0.00,,,0.00,775,weatherlink.com 1.10,2013-09-15 18:46:00,
2013-09-15 12:01:00,73.0,57.0,29.84,West,275,4.0,8.0,58,0.00,,,0.00,791,weatherlink.com 1.10,2013-09-15 19:01:00,
2013-09-15 12:16:00,73.1,57.0,29.84,West,281,5.0,7.0,58,0.00,,,0.00,803,weatherlink.com 1.10,2013-09-15 19:16:00,
2013-09-15 12:31:00,73.7,57.0,29.84,WSW,253,0.0,7.0,57,0.00,,,0.00,809,weatherlink.com 1.10,2013-09-15 19:31:00,
2013-09-15 12:46:00,73.4,58.0,29.84,West,279,5.0,8.0,58,0.00,,,0.00,803,weatherlink.com 1.10,2013-09-15 19:46:00,
2013-09-15 13:01:00,74.5,58.0,29.84,WSW,256,3.0,5.0,56,0.00,,,0.00,186,weatherlink.com 1.10,2013-09-15 20:01:00,
2013-09-15 13:16:00,74.0,58.0,29.84,West,266,3.0,4.0,58,0.00,,,0.00,671,weatherlink.com 1.10,2013-09-15 20:16:00,
2013-09-15 13:31:00,74.7,58.0,29.84,WSW,248,1.0,5.0,56,0.00,,,0.00,49,weatherlink.com 1.10,2013-09-15 20:31:00,
2013-09-15 13:46:00,73.9,58.0,29.84,WSW,257,1.0,6.0,57,0.00,,,0.00,329,weatherlink.com 1.10,2013-09-15 20:46:00,
2013-09-15 14:01:00,74.2,57.0,29.84,West,275,0.0,5.0,56,0.00,,,0.00,290,weatherlink.com 1.10,2013-09-15 21:01:00,
2013-09-15 14:16:00,74.4,58.0,29.84,WSW,253,1.0,5.0,57,0.00,,,0.00,40,weatherlink.com 1.10,2013-09-15 21:16:00,
2013-09-15 14:31:00,75.0,57.0,29.83,WNW,284,2.0,5.0,54,0.00,,,0.00,111,weatherlink.com 1.10,2013-09-15 21:31:00,
2013-09-15 14:46:00,75.0,58.0,29.83,West,273,3.0,6.0,55,0.00,,,0.00,35,weatherlink.com 1.10,2013-09-15 21:46:00,
2013-09-15 15:01:00,74.9,58.0,29.83,WSW,250,1.0,5.0,55,0.00,,,0.00,109,weatherlink.com 1.10,2013-09-15 22:01:00,
2013-09-15 15:16:00,74.5,57.0,29.83,SW,235,1.0,4.0,55,0.00,,,0.00,26,weatherlink.com 1.10,2013-09-15 22:16:00,
2013-09-15 15:31:00,74.1,57.0,29.82,West,268,2.0,5.0,56,0.00,,,0.00,26,weatherlink.com 1.10,2013-09-15 22:31:00,
2013-09-15 15:46:00,72.7,57.0,29.83,WSW,241,0.0,4.0,59,0.00,,,0.00,25,weatherlink.com 1.10,2013-09-15 22:46:00,
2013-09-15 16:01:00,72.2,57.0,29.82,West,262,0.0,3.0,60,0.00,,,0.00,23,weatherlink.com 1.10,2013-09-15 23:01:00,
2013-09-15 16:16:00,71.9,57.0,29.82,West,265,0.0,4.0,60,0.00,,,0.00,23,weatherlink.com 1.10,2013-09-15 23:16:00,
2013-09-15 16:31:00,71.5,57.0,29.82,West,262,0.0,3.0,61,0.00,,,0.00,21,weatherlink.com 1.10,2013-09-15 23:31:00,
2013-09-15 16:46:00,71.2,57.0,29.81,West,268,0.0,4.0,62,0.00,,,0.00,33,weatherlink.com 1.10,2013-09-15 23:46:00,
2013-09-15 17:01:00,71.0,58.0,29.81,WSW,249,0.0,2.0,63,0.00,,,0.00,19,weatherlink.com 1.10,2013-09-16 00:01:00,
2013-09-15 17:16:00,70.2,58.0,29.80,NW,307,0.0,2.0,65,0.00,,,0.00,18,weatherlink.com 1.10,2013-09-16 00:16:00,
2013-09-15 17:31:00,70.1,58.0,29.81,WNW,286,0.0,2.0,65,0.00,,,0.00,16,weatherlink.com 1.10,2013-09-16 00:31:00,
2013-09-15 17:46:00,69.4,57.0,29.81,WSW,258,0.0,3.0,66,0.00,,,0.00,14,weatherlink.com 1.10,2013-09-16 00:46:00,
2013-09-15 18:01:00,69.0,58.0,29.81,NW,313,1.0,2.0,67,0.00,,,0.00,12,weatherlink.com 1.10,2013-09-16 01:01:00,
2013-09-15 18:16:00,68.1,58.0,29.81,NE,47,0.0,3.0,69,0.00,,,0.00,11,weatherlink.com 1.10,2013-09-16 01:16:00,
2013-09-15 18:31:00,68.1,58.0,29.81,WNW,290,0.0,2.0,69,0.00,,,0.00,11,weatherlink.com 1.10,2013-09-16 01:31:00,
2013-09-15 18:46:00,67.3,58.0,29.81,WNW,284,0.0,1.0,71,0.00,,,0.00,7,weatherlink.com 1.10,2013-09-16 01:46:00,
2013-09-15 19:01:00,66.1,58.0,29.81,NW,304,0.0,2.0,74,0.00,,,0.00,5,weatherlink.com 1.10,2013-09-16 02:01:00,
2013-09-15 19:16:00,65.2,58.0,29.81,NW,304,0.0,1.0,77,0.00,,,0.00,0,weatherlink.com 1.10,2013-09-16 02:16:00,
2013-09-15 19:31:00,64.1,57.0,29.81,NW,304,0.0,0.0,79,0.00,,,0.00,0,weatherlink.com 1.10,2013-09-16 02:31:00,
2013-09-15 19:46:00,63.3,58.0,29.82,NW,304,0.0,0.0,82,0.00,,,0.00,0,weatherlink.com 1.10,2013-09-16 02:46:00,
2013-09-15 20:01:00,62.9,58.0,29.82,NW,304,0.0,1.0,84,0.00,,,0.00,0,weatherlink.com 1.10,2013-09-16 03:01:00,
2013-09-15 20:16:00,62.4,58.0,29.82,NW,304,0.0,1.0,85,0.00,,,0.00,0,weatherlink.com 1.10,2013-09-16 03:16:00,
2013-09-15 20:31:00,61.3,57.0,29.83,NW,304,0.0,0.0,87,0.00,,,0.00,0,weatherlink.com 1.10,2013-09-16 03:31:00,
2013-09-15 20:46:00,61.3,57.0,29.83,NW,304,0.0,0.0,87,0.00,,,0.00,0,weatherlink.com 1.10,2013-09-16 03:46:00,
2013-09-15 21:01:00,60.9,57.0,29.84,NW,304,0.0,1.0,88,0.00,,,0.00,0,weatherlink.com 1.10,2013-09-16 04:01:00,
2013-09-15 21:16:00,60.6,57.0,29.84,NW,306,0.0,0.0,89,0.00,,,0.00,0,weatherlink.com 1.10,2013-09-16 04:16:00,
2013-09-15 21:31:00,60.6,58.0,29.84,NW,306,0.0,1.0,90,0.00,,,0.00,0,weatherlink.com 1.10,2013-09-16 04:31:00,
2013-09-15 21:46:00,60.4,58.0,29.84,NW,306,0.0,1.0,92,0.00,,,0.00,0,weatherlink.com 1.10,2013-09-16 04:46:00,
2013-09-15 22:01:00,59.9,57.0,29.84,NW,306,0.0,0.0,91,0.00,,,0.00,0,weatherlink.com 1.10,2013-09-16 05:01:00,
2013-09-15 22:16:00,59.6,57.0,29.84,NW,306,0.0,0.0,92,0.00,,,0.00,0,weatherlink.com 1.10,2013-09-16 05:16:00,
2013-09-15 22:31:00,60.0,58.0,29.84,NW,306,0.0,0.0,92,0.00,,,0.00,0,weatherlink.com 1.10,2013-09-16 05:31:00,
2013-09-15 22:47:00,59.6,58.0,29.85,NW,306,0.0,0.0,93,0.00,,,0.00,0,weatherlink.com 1.10,2013-09-16 05:47:00,
2013-09-15 23:02:00,59.1,57.0,29.85,NW,306,0.0,0.0,93,0.00,,,0.00,0,weatherlink.com 1.10,2013-09-16 06:02:00,
2013-09-15 23:17:00,59.1,57.0,29.85,NW,306,0.0,0.0,94,0.00,,,0.00,0,weatherlink.com 1.10,2013-09-16 06:17:00,
2013-09-15 23:32:00,59.1,57.0,29.85,NW,306,0.0,0.0,94,0.00,,,0.00,0,weatherlink.com 1.10,2013-09-16 06:32:00,
2013-09-15 23:47:00,58.9,58.0,29.85,NW,306,0.0,0.0,95,0.00,,,0.00,0,weatherlink.com 1.10,2013-09-16 06:47:00,